sensor_id;sensor_type;location;lat;lon;timestamp;pressure;altitude;pressure_sealevel;temperature;humidity
21574;BME280;10948;48.706;9.258;2022-11-15T00:01:50;97611.88;;;5.84;100.00
21574;BME280;10948;48.706;9.258;2022-11-15T00:04:15;97615.09;;;5.69;100.00
21574;BME280;10948;48.706;9.258;2022-11-15T00:06:41;97615.16;;;5.68;100.00
21574;BME280;10948;48.706;9.258;2022-11-15T00:09:06;97616.72;;;5.72;100.00
21574;BME280;10948;48.706;9.258;2022-11-15T00:11:31;97612.25;;;5.75;100.00
21574;BME280;10948;48.706;9.258;2022-11-15T00:13:57;97613.94;;;5.76;100.00
21574;BME280;10948;48.706;9.258;2022-11-15T00:16:22;97620.53;;;5.83;100.00
21574;BME280;10948;48.706;9.258;2022-11-15T00:18:48;97615.38;;;5.83;100.00
21574;BME280;10948;48.706;9.258;2022-11-15T00:21:13;97614.19;;;5.90;100.00
21574;BME280;10948;48.706;9.258;2022-11-15T00:23:38;97613.59;;;5.85;100.00
21574;BME280;10948;48.706;9.258;2022-11-15T00:26:04;97614.41;;;5.86;100.00
21574;BME280;10948;48.706;9.258;2022-11-15T00:28:29;97605.94;;;5.82;100.00
21574;BME280;10948;48.706;9.258;2022-11-15T00:30:59;97617.31;;;5.78;100.00
21574;BME280;10948;48.706;9.258;2022-11-15T00:33:24;97601.03;;;5.76;100.00
21574;BME280;10948;48.706;9.258;2022-11-15T00:35:49;97598.69;;;5.70;100.00
21574;BME280;10948;48.706;9.258;2022-11-15T00:38:15;97593.53;;;5.70;100.00
21574;BME280;10948;48.706;9.258;2022-11-15T00:40:40;97596.81;;;5.74;100.00
21574;BME280;10948;48.706;9.258;2022-11-15T00:43:06;97594.25;;;5.74;100.00
21574;BME280;10948;48.706;9.258;2022-11-15T00:45:31;97595.81;;;5.58;100.00
21574;BME280;10948;48.706;9.258;2022-11-15T00:47:56;97590.47;;;5.62;100.00
21574;BME280;10948;48.706;9.258;2022-11-15T00:50:22;97586.22;;;5.61;100.00
21574;BME280;10948;48.706;9.258;2022-11-15T00:52:47;97592.13;;;5.63;100.00
21574;BME280;10948;48.706;9.258;2022-11-15T00:55:16;97596.69;;;5.38;100.00
21574;BME280;10948;48.706;9.258;2022-11-15T00:57:41;97588.03;;;5.59;100.00
21574;BME280;10948;48.706;9.258;2022-11-15T01:00:07;97591.53;;;5.38;100.00
21574;BME280;10948;48.706;9.258;2022-11-15T01:02:32;97589.31;;;5.49;100.00
21574;BME280;10948;48.706;9.258;2022-11-15T01:04:58;97582.44;;;5.30;100.00
21574;BME280;10948;48.706;9.258;2022-11-15T01:07:23;97576.41;;;5.29;100.00
21574;BME280;10948;48.706;9.258;2022-11-15T01:09:48;97576.56;;;5.26;100.00
21574;BME280;10948;48.706;9.258;2022-11-15T01:12:13;97569.72;;;5.25;100.00
21574;BME280;10948;48.706;9.258;2022-11-15T01:14:39;97572.22;;;5.27;100.00
21574;BME280;10948;48.706;9.258;2022-11-15T01:17:04;97566.63;;;5.17;100.00
21574;BME280;10948;48.706;9.258;2022-11-15T01:19:29;97568.81;;;5.26;100.00
21574;BME280;10948;48.706;9.258;2022-11-15T01:21:54;97565.59;;;5.02;100.00
21574;BME280;10948;48.706;9.258;2022-11-15T01:24:20;97558.38;;;5.09;100.00
21574;BME280;10948;48.706;9.258;2022-11-15T01:26:45;97564.56;;;4.86;100.00
21574;BME280;10948;48.706;9.258;2022-11-15T01:29:10;97557.72;;;5.04;100.00
21574;BME280;10948;48.706;9.258;2022-11-15T01:31:35;97564.28;;;4.92;100.00
21574;BME280;10948;48.706;9.258;2022-11-15T01:34:01;97556.69;;;5.08;100.00
21574;BME280;10948;48.706;9.258;2022-11-15T01:36:26;97557.13;;;4.78;100.00
21574;BME280;10948;48.706;9.258;2022-11-15T01:38:55;97549.59;;;4.74;100.00
21574;BME280;10948;48.706;9.258;2022-11-15T01:41:22;97554.31;;;4.63;100.00
21574;BME280;10948;48.706;9.258;2022-11-15T01:43:51;97557.66;;;4.65;100.00
21574;BME280;10948;48.706;9.258;2022-11-15T01:48:44;97556.72;;;4.67;100.00
21574;BME280;10948;48.706;9.258;2022-11-15T01:51:10;97553.56;;;4.61;100.00
21574;BME280;10948;48.706;9.258;2022-11-15T01:53:38;97543.97;;;4.43;100.00
21574;BME280;10948;48.706;9.258;2022-11-15T01:56:06;97545.69;;;4.64;100.00
21574;BME280;10948;48.706;9.258;2022-11-15T01:58:33;97547.44;;;4.42;100.00
21574;BME280;10948;48.706;9.258;2022-11-15T02:00:59;97542.88;;;4.48;100.00
21574;BME280;10948;48.706;9.258;2022-11-15T02:03:26;97535.81;;;4.32;100.00
21574;BME280;10948;48.706;9.258;2022-11-15T02:05:53;97536.41;;;4.60;100.00
21574;BME280;10948;48.706;9.258;2022-11-15T02:08:18;97531.84;;;4.45;100.00
21574;BME280;10948;48.706;9.258;2022-11-15T02:10:47;97535.94;;;4.50;100.00
21574;BME280;10948;48.706;9.258;2022-11-15T02:13:13;97529.78;;;4.33;100.00
21574;BME280;10948;48.706;9.258;2022-11-15T02:15:43;97529.03;;;4.51;100.00
21574;BME280;10948;48.706;9.258;2022-11-15T02:31:11;97512.84;;;4.06;100.00
21574;BME280;10948;48.706;9.258;2022-11-15T02:39:03;97501.94;;;4.21;100.00
21574;BME280;10948;48.706;9.258;2022-11-15T02:41:36;97511.38;;;4.20;100.00
21574;BME280;10948;48.706;9.258;2022-11-15T02:44:07;97501.28;;;4.16;100.00
21574;BME280;10948;48.706;9.258;2022-11-15T02:46:42;97510.91;;;4.11;100.00
21574;BME280;10948;48.706;9.258;2022-11-15T02:49:29;97507.56;;;4.09;100.00
21574;BME280;10948;48.706;9.258;2022-11-15T02:51:56;97496.41;;;4.08;100.00
21574;BME280;10948;48.706;9.258;2022-11-15T02:54:22;97490.06;;;4.17;100.00
21574;BME280;10948;48.706;9.258;2022-11-15T02:56:47;97489.00;;;4.01;100.00
21574;BME280;10948;48.706;9.258;2022-11-15T03:01:56;97478.72;;;4.22;100.00
21574;BME280;10948;48.706;9.258;2022-11-15T03:07:18;97486.81;;;4.55;100.00
21574;BME280;10948;48.706;9.258;2022-11-15T03:09:54;97483.72;;;4.47;100.00
21574;BME280;10948;48.706;9.258;2022-11-15T03:12:29;97486.28;;;4.47;100.00
21574;BME280;10948;48.706;9.258;2022-11-15T03:15:06;97487.53;;;4.15;100.00
21574;BME280;10948;48.706;9.258;2022-11-15T03:17:37;97481.19;;;4.24;100.00
21574;BME280;10948;48.706;9.258;2022-11-15T03:20:05;97479.03;;;4.35;100.00
21574;BME280;10948;48.706;9.258;2022-11-15T03:22:33;97473.19;;;4.31;100.00
21574;BME280;10948;48.706;9.258;2022-11-15T03:25:01;97472.22;;;4.34;100.00
21574;BME280;10948;48.706;9.258;2022-11-15T03:27:28;97466.59;;;4.46;100.00
21574;BME280;10948;48.706;9.258;2022-11-15T03:29:59;97464.06;;;4.44;100.00
21574;BME280;10948;48.706;9.258;2022-11-15T03:32:26;97468.38;;;4.44;100.00
21574;BME280;10948;48.706;9.258;2022-11-15T03:35:06;97455.91;;;4.33;100.00
21574;BME280;10948;48.706;9.258;2022-11-15T03:40:00;97459.22;;;4.37;100.00
21574;BME280;10948;48.706;9.258;2022-11-15T03:42:27;97455.91;;;4.55;100.00
21574;BME280;10948;48.706;9.258;2022-11-15T03:44:58;97449.19;;;4.51;100.00
21574;BME280;10948;48.706;9.258;2022-11-15T03:47:28;97451.38;;;4.40;100.00
21574;BME280;10948;48.706;9.258;2022-11-15T03:49:57;97452.81;;;4.47;100.00
21574;BME280;10948;48.706;9.258;2022-11-15T03:52:24;97445.84;;;4.49;100.00
21574;BME280;10948;48.706;9.258;2022-11-15T03:54:56;97447.25;;;4.56;100.00
21574;BME280;10948;48.706;9.258;2022-11-15T03:57:21;97447.13;;;4.39;100.00
21574;BME280;10948;48.706;9.258;2022-11-15T03:59:46;97451.47;;;4.37;100.00
21574;BME280;10948;48.706;9.258;2022-11-15T04:02:12;97454.47;;;4.48;100.00
21574;BME280;10948;48.706;9.258;2022-11-15T04:04:37;97446.81;;;4.25;100.00
21574;BME280;10948;48.706;9.258;2022-11-15T04:07:02;97444.25;;;4.25;100.00
21574;BME280;10948;48.706;9.258;2022-11-15T04:09:28;97448.25;;;4.32;100.00
21574;BME280;10948;48.706;9.258;2022-11-15T04:11:53;97445.16;;;4.24;100.00
21574;BME280;10948;48.706;9.258;2022-11-15T04:14:18;97440.00;;;4.24;100.00
21574;BME280;10948;48.706;9.258;2022-11-15T04:16:43;97440.88;;;4.03;100.00
21574;BME280;10948;48.706;9.258;2022-11-15T04:19:21;97444.34;;;4.02;100.00
21574;BME280;10948;48.706;9.258;2022-11-15T04:22:07;97447.34;;;4.13;100.00
21574;BME280;10948;48.706;9.258;2022-11-15T04:24:52;97449.00;;;3.92;100.00
21574;BME280;10948;48.706;9.258;2022-11-15T04:27:19;97446.84;;;3.82;100.00
21574;BME280;10948;48.706;9.258;2022-11-15T04:29:44;97451.41;;;3.97;100.00
21574;BME280;10948;48.706;9.258;2022-11-15T04:32:09;97444.47;;;3.99;100.00
21574;BME280;10948;48.706;9.258;2022-11-15T04:34:34;97443.16;;;4.10;100.00
21574;BME280;10948;48.706;9.258;2022-11-15T04:37:00;97444.09;;;4.08;100.00
21574;BME280;10948;48.706;9.258;2022-11-15T04:39:37;97435.25;;;4.15;100.00
21574;BME280;10948;48.706;9.258;2022-11-15T04:42:03;97431.22;;;4.08;100.00
21574;BME280;10948;48.706;9.258;2022-11-15T04:44:28;97432.59;;;4.16;100.00
21574;BME280;10948;48.706;9.258;2022-11-15T04:46:53;97430.56;;;4.03;100.00
21574;BME280;10948;48.706;9.258;2022-11-15T04:49:18;97423.66;;;3.83;100.00
21574;BME280;10948;48.706;9.258;2022-11-15T04:51:44;97426.75;;;4.13;100.00
21574;BME280;10948;48.706;9.258;2022-11-15T04:54:09;97424.13;;;3.93;100.00
21574;BME280;10948;48.706;9.258;2022-11-15T04:56:34;97416.75;;;3.84;100.00
21574;BME280;10948;48.706;9.258;2022-11-15T04:58:59;97414.16;;;3.84;100.00
21574;BME280;10948;48.706;9.258;2022-11-15T05:01:24;97412.16;;;3.70;100.00
21574;BME280;10948;48.706;9.258;2022-11-15T05:03:50;97416.25;;;3.74;100.00
21574;BME280;10948;48.706;9.258;2022-11-15T05:06:33;97412.50;;;3.83;100.00
21574;BME280;10948;48.706;9.258;2022-11-15T05:08:59;97407.69;;;3.95;100.00
21574;BME280;10948;48.706;9.258;2022-11-15T05:11:24;97414.31;;;3.81;100.00
21574;BME280;10948;48.706;9.258;2022-11-15T05:13:49;97415.03;;;4.06;100.00
21574;BME280;10948;48.706;9.258;2022-11-15T05:16:14;97411.16;;;4.16;100.00
21574;BME280;10948;48.706;9.258;2022-11-15T05:18:40;97415.25;;;4.00;100.00
21574;BME280;10948;48.706;9.258;2022-11-15T05:21:09;97410.69;;;3.85;100.00
21574;BME280;10948;48.706;9.258;2022-11-15T05:23:35;97412.63;;;3.80;100.00
21574;BME280;10948;48.706;9.258;2022-11-15T05:26:00;97420.66;;;3.94;100.00
21574;BME280;10948;48.706;9.258;2022-11-15T05:28:26;97415.59;;;3.91;100.00
21574;BME280;10948;48.706;9.258;2022-11-15T05:30:51;97410.59;;;3.88;100.00
21574;BME280;10948;48.706;9.258;2022-11-15T05:33:17;97406.63;;;3.79;100.00
21574;BME280;10948;48.706;9.258;2022-11-15T05:35:42;97415.13;;;4.03;100.00
21574;BME280;10948;48.706;9.258;2022-11-15T05:38:10;97411.53;;;4.07;100.00
21574;BME280;10948;48.706;9.258;2022-11-15T05:40:36;97409.22;;;4.01;100.00
21574;BME280;10948;48.706;9.258;2022-11-15T05:43:01;97393.00;;;3.99;100.00
21574;BME280;10948;48.706;9.258;2022-11-15T05:45:28;97397.69;;;3.89;100.00
21574;BME280;10948;48.706;9.258;2022-11-15T05:47:54;97400.63;;;3.79;100.00
21574;BME280;10948;48.706;9.258;2022-11-15T05:50:21;97389.38;;;4.03;100.00
21574;BME280;10948;48.706;9.258;2022-11-15T05:52:46;97401.13;;;3.88;100.00
21574;BME280;10948;48.706;9.258;2022-11-15T05:55:12;97397.91;;;3.83;100.00
21574;BME280;10948;48.706;9.258;2022-11-15T05:57:37;97397.84;;;3.85;100.00
21574;BME280;10948;48.706;9.258;2022-11-15T06:00:03;97392.16;;;3.98;100.00
21574;BME280;10948;48.706;9.258;2022-11-15T06:02:28;97397.78;;;3.65;100.00
21574;BME280;10948;48.706;9.258;2022-11-15T06:04:54;97404.69;;;3.86;100.00
21574;BME280;10948;48.706;9.258;2022-11-15T06:07:19;97402.44;;;3.55;100.00
21574;BME280;10948;48.706;9.258;2022-11-15T06:09:45;97395.75;;;3.73;100.00
21574;BME280;10948;48.706;9.258;2022-11-15T06:12:10;97398.97;;;3.78;100.00
21574;BME280;10948;48.706;9.258;2022-11-15T06:14:35;97398.75;;;3.62;100.00
21574;BME280;10948;48.706;9.258;2022-11-15T06:17:00;97388.56;;;3.81;100.00
21574;BME280;10948;48.706;9.258;2022-11-15T06:19:26;97400.25;;;3.89;100.00
21574;BME280;10948;48.706;9.258;2022-11-15T06:21:52;97398.91;;;3.79;100.00
21574;BME280;10948;48.706;9.258;2022-11-15T06:24:17;97401.16;;;3.67;100.00
21574;BME280;10948;48.706;9.258;2022-11-15T06:26:42;97410.78;;;3.62;100.00
21574;BME280;10948;48.706;9.258;2022-11-15T06:29:07;97403.72;;;3.67;100.00
21574;BME280;10948;48.706;9.258;2022-11-15T06:31:33;97402.19;;;3.61;100.00
21574;BME280;10948;48.706;9.258;2022-11-15T06:33:58;97410.88;;;3.80;100.00
21574;BME280;10948;48.706;9.258;2022-11-15T06:36:24;97401.00;;;3.70;100.00
21574;BME280;10948;48.706;9.258;2022-11-15T06:38:49;97411.31;;;3.70;100.00
21574;BME280;10948;48.706;9.258;2022-11-15T06:41:15;97409.41;;;3.75;100.00
21574;BME280;10948;48.706;9.258;2022-11-15T06:43:41;97403.78;;;3.87;100.00
21574;BME280;10948;48.706;9.258;2022-11-15T06:46:07;97403.78;;;3.87;100.00
21574;BME280;10948;48.706;9.258;2022-11-15T06:48:33;97412.19;;;3.69;100.00
21574;BME280;10948;48.706;9.258;2022-11-15T06:50:59;97403.53;;;3.93;100.00
21574;BME280;10948;48.706;9.258;2022-11-15T06:53:24;97407.41;;;4.03;100.00
21574;BME280;10948;48.706;9.258;2022-11-15T06:55:50;97406.00;;;4.16;100.00
21574;BME280;10948;48.706;9.258;2022-11-15T06:58:15;97403.16;;;4.43;100.00
21574;BME280;10948;48.706;9.258;2022-11-15T07:00:40;97406.88;;;4.16;100.00
21574;BME280;10948;48.706;9.258;2022-11-15T07:03:06;97403.50;;;4.14;100.00
21574;BME280;10948;48.706;9.258;2022-11-15T07:05:31;97407.09;;;4.10;100.00
21574;BME280;10948;48.706;9.258;2022-11-15T07:07:57;97399.44;;;4.09;100.00
21574;BME280;10948;48.706;9.258;2022-11-15T07:10:23;97405.38;;;4.31;100.00
21574;BME280;10948;48.706;9.258;2022-11-15T07:12:49;97409.97;;;4.44;100.00
21574;BME280;10948;48.706;9.258;2022-11-15T07:15:15;97405.63;;;4.65;100.00
21574;BME280;10948;48.706;9.258;2022-11-15T07:17:41;97410.63;;;5.07;100.00
21574;BME280;10948;48.706;9.258;2022-11-15T07:20:06;97407.56;;;5.36;100.00
21574;BME280;10948;48.706;9.258;2022-11-15T07:22:32;97402.69;;;5.67;100.00
21574;BME280;10948;48.706;9.258;2022-11-15T07:24:57;97402.25;;;5.76;100.00
21574;BME280;10948;48.706;9.258;2022-11-15T07:27:23;97389.09;;;6.52;100.00
21574;BME280;10948;48.706;9.258;2022-11-15T07:29:48;97387.94;;;6.57;100.00
21574;BME280;10948;48.706;9.258;2022-11-15T07:32:13;97387.16;;;6.04;100.00
21574;BME280;10948;48.706;9.258;2022-11-15T07:34:39;97391.31;;;5.90;100.00
21574;BME280;10948;48.706;9.258;2022-11-15T07:37:04;97395.00;;;6.03;100.00
21574;BME280;10948;48.706;9.258;2022-11-15T07:39:29;97389.69;;;7.70;100.00
21574;BME280;10948;48.706;9.258;2022-11-15T07:41:54;97365.72;;;11.35;100.00
21574;BME280;10948;48.706;9.258;2022-11-15T07:44:39;97372.69;;;12.88;89.98
21574;BME280;10948;48.706;9.258;2022-11-15T07:47:05;97372.09;;;13.63;81.04
21574;BME280;10948;48.706;9.258;2022-11-15T07:49:30;97360.47;;;14.93;73.19
21574;BME280;10948;48.706;9.258;2022-11-15T07:51:55;97360.00;;;14.88;69.13
21574;BME280;10948;48.706;9.258;2022-11-15T07:54:20;97357.00;;;16.22;66.65
21574;BME280;10948;48.706;9.258;2022-11-15T07:56:46;97359.47;;;15.65;67.32
21574;BME280;10948;48.706;9.258;2022-11-15T07:59:11;97361.72;;;12.95;79.21
21574;BME280;10948;48.706;9.258;2022-11-15T08:01:38;97368.13;;;12.68;89.11
21574;BME280;10948;48.706;9.258;2022-11-15T08:04:04;97350.94;;;13.11;89.90
21574;BME280;10948;48.706;9.258;2022-11-15T08:06:29;97354.22;;;12.56;89.92
21574;BME280;10948;48.706;9.258;2022-11-15T08:08:55;97352.81;;;10.96;100.00
21574;BME280;10948;48.706;9.258;2022-11-15T08:11:20;97346.47;;;11.12;100.00
21574;BME280;10948;48.706;9.258;2022-11-15T08:13:46;97357.97;;;10.34;100.00
21574;BME280;10948;48.706;9.258;2022-11-15T08:16:11;97356.81;;;10.25;100.00
21574;BME280;10948;48.706;9.258;2022-11-15T08:18:37;97345.53;;;11.26;100.00
21574;BME280;10948;48.706;9.258;2022-11-15T08:21:02;97348.91;;;12.69;100.00
21574;BME280;10948;48.706;9.258;2022-11-15T08:23:28;97332.09;;;14.57;89.96
21574;BME280;10948;48.706;9.258;2022-11-15T08:26:03;97327.25;;;15.23;83.05
21574;BME280;10948;48.706;9.258;2022-11-15T08:28:30;97333.81;;;13.51;82.77
21574;BME280;10948;48.706;9.258;2022-11-15T08:30:55;97331.78;;;12.43;96.33
21574;BME280;10948;48.706;9.258;2022-11-15T08:33:20;97334.25;;;11.38;100.00
21574;BME280;10948;48.706;9.258;2022-11-15T08:35:46;97335.22;;;12.20;100.00
21574;BME280;10948;48.706;9.258;2022-11-15T08:38:11;97332.97;;;12.50;100.00
21574;BME280;10948;48.706;9.258;2022-11-15T08:40:37;97331.06;;;12.52;100.00
21574;BME280;10948;48.706;9.258;2022-11-15T08:43:03;97327.03;;;13.48;96.88
21574;BME280;10948;48.706;9.258;2022-11-15T08:45:29;97320.63;;;14.06;93.33
21574;BME280;10948;48.706;9.258;2022-11-15T08:47:54;97312.88;;;15.18;86.32
21574;BME280;10948;48.706;9.258;2022-11-15T08:50:19;97314.19;;;15.63;81.81
21574;BME280;10948;48.706;9.258;2022-11-15T08:52:45;97306.94;;;16.23;76.70
21574;BME280;10948;48.706;9.258;2022-11-15T08:55:10;97309.88;;;17.23;72.13
21574;BME280;10948;48.706;9.258;2022-11-15T08:57:35;97300.88;;;17.25;69.96
21574;BME280;10948;48.706;9.258;2022-11-15T09:00:01;97300.19;;;16.78;69.79
21574;BME280;10948;48.706;9.258;2022-11-15T09:02:26;97305.41;;;16.87;69.26
21574;BME280;10948;48.706;9.258;2022-11-15T09:04:51;97305.13;;;16.81;68.90
21574;BME280;10948;48.706;9.258;2022-11-15T09:07:17;97297.47;;;17.52;66.40
21574;BME280;10948;48.706;9.258;2022-11-15T09:09:42;97290.22;;;17.63;64.87
21574;BME280;10948;48.706;9.258;2022-11-15T09:12:07;97300.47;;;17.20;65.46
21574;BME280;10948;48.706;9.258;2022-11-15T09:14:33;97299.50;;;16.66;68.57
21574;BME280;10948;48.706;9.258;2022-11-15T09:16:58;97299.22;;;14.64;75.90
21574;BME280;10948;48.706;9.258;2022-11-15T09:19:23;97307.13;;;13.90;84.03
21574;BME280;10948;48.706;9.258;2022-11-15T09:21:49;97308.31;;;14.28;88.03
21574;BME280;10948;48.706;9.258;2022-11-15T09:24:14;97299.13;;;14.34;87.65
21574;BME280;10948;48.706;9.258;2022-11-15T09:26:39;97300.59;;;14.68;89.11
21574;BME280;10948;48.706;9.258;2022-11-15T09:29:05;97293.56;;;16.07;82.98
21574;BME280;10948;48.706;9.258;2022-11-15T09:31:30;97284.56;;;17.76;70.53
21574;BME280;10948;48.706;9.258;2022-11-15T09:33:55;97289.84;;;18.20;66.44
21574;BME280;10948;48.706;9.258;2022-11-15T09:36:20;97285.94;;;19.10;62.29
21574;BME280;10948;48.706;9.258;2022-11-15T09:38:46;97287.50;;;18.95;62.74
21574;BME280;10948;48.706;9.258;2022-11-15T09:49:15;97280.63;;;19.61;61.30
21574;BME280;10948;48.706;9.258;2022-11-15T09:51:23;97285.09;;;18.84;60.95
21574;BME280;10948;48.706;9.258;2022-11-15T09:54:11;97272.75;;;19.77;60.27
21574;BME280;10948;48.706;9.258;2022-11-15T09:56:36;97277.16;;;16.98;66.01
21574;BME280;10948;48.706;9.258;2022-11-15T10:03:55;97263.09;;;17.53;63.99
21574;BME280;10948;48.706;9.258;2022-11-15T10:06:23;97269.22;;;15.96;72.42
21574;BME280;10948;48.706;9.258;2022-11-15T10:11:34;97262.03;;;15.88;78.40
21574;BME280;10948;48.706;9.258;2022-11-15T10:14:01;97256.78;;;16.36;79.69
21574;BME280;10948;48.706;9.258;2022-11-15T10:21:25;97250.31;;;16.40;73.89
21574;BME280;10948;48.706;9.258;2022-11-15T10:23:53;97254.56;;;15.74;76.86
21574;BME280;10948;48.706;9.258;2022-11-15T10:26:19;97252.59;;;15.67;78.05
21574;BME280;10948;48.706;9.258;2022-11-15T10:28:47;97238.22;;;15.52;80.42
21574;BME280;10948;48.706;9.258;2022-11-15T10:33:48;97235.53;;;15.82;81.69
21574;BME280;10948;48.706;9.258;2022-11-15T10:36:14;97235.16;;;15.37;82.15
21574;BME280;10948;48.706;9.258;2022-11-15T10:46:37;97218.19;;;15.02;86.37
21574;BME280;10948;48.706;9.258;2022-11-15T10:49:25;97214.84;;;15.00;87.72
21574;BME280;10948;48.706;9.258;2022-11-15T10:54:41;97212.69;;;15.05;89.17
21574;BME280;10948;48.706;9.258;2022-11-15T10:57:53;97219.31;;;14.79;89.66
21574;BME280;10948;48.706;9.258;2022-11-15T10:59:57;97216.78;;;14.98;90.33
21574;BME280;10948;48.706;9.258;2022-11-15T11:02:30;97211.75;;;14.76;90.10
21574;BME280;10948;48.706;9.258;2022-11-15T11:04:56;97209.72;;;14.59;92.59
21574;BME280;10948;48.706;9.258;2022-11-15T11:07:23;97208.50;;;14.42;96.47
21574;BME280;10948;48.706;9.258;2022-11-15T11:09:56;97207.94;;;14.39;98.82
21574;BME280;10948;48.706;9.258;2022-11-15T11:12:26;97199.84;;;14.42;99.25
21574;BME280;10948;48.706;9.258;2022-11-15T11:14:52;97197.91;;;14.23;100.00
21574;BME280;10948;48.706;9.258;2022-11-15T11:17:32;97196.44;;;14.10;99.85
21574;BME280;10948;48.706;9.258;2022-11-15T11:20:02;97198.50;;;14.27;100.00
21574;BME280;10948;48.706;9.258;2022-11-15T11:25:18;97197.59;;;14.17;100.00
21574;BME280;10948;48.706;9.258;2022-11-15T11:27:50;97188.59;;;14.51;100.00
21574;BME280;10948;48.706;9.258;2022-11-15T11:30:32;97184.31;;;14.50;100.00
21574;BME280;10948;48.706;9.258;2022-11-15T11:38:19;97182.91;;;14.05;100.00
21574;BME280;10948;48.706;9.258;2022-11-15T11:48:56;97167.59;;;14.00;100.00
21574;BME280;10948;48.706;9.258;2022-11-15T11:51:29;97163.16;;;14.01;100.00
21574;BME280;10948;48.706;9.258;2022-11-15T11:53:58;97150.69;;;14.45;100.00
21574;BME280;10948;48.706;9.258;2022-11-15T11:56:31;97149.44;;;14.19;100.00
21574;BME280;10948;48.706;9.258;2022-11-15T11:59:17;97154.78;;;14.48;100.00
21574;BME280;10948;48.706;9.258;2022-11-15T12:01:44;97148.00;;;14.66;100.00
21574;BME280;10948;48.706;9.258;2022-11-15T12:06:49;97147.25;;;14.94;100.00
21574;BME280;10948;48.706;9.258;2022-11-15T12:09:17;97145.00;;;14.80;95.73
21574;BME280;10948;48.706;9.258;2022-11-15T12:15:00;97142.31;;;14.31;100.00
21574;BME280;10948;48.706;9.258;2022-11-15T12:17:07;97134.03;;;14.26;100.00
21574;BME280;10948;48.706;9.258;2022-11-15T12:19:33;97134.53;;;14.40;100.00
21574;BME280;10948;48.706;9.258;2022-11-15T12:22:04;97127.41;;;14.22;100.00
21574;BME280;10948;48.706;9.258;2022-11-15T12:24:36;97124.41;;;14.26;100.00
21574;BME280;10948;48.706;9.258;2022-11-15T12:29:49;97113.66;;;14.09;100.00
21574;BME280;10948;48.706;9.258;2022-11-15T12:34:51;97116.94;;;14.22;100.00
21574;BME280;10948;48.706;9.258;2022-11-15T12:42:41;97117.88;;;14.21;100.00
21574;BME280;10948;48.706;9.258;2022-11-15T12:47:52;97118.19;;;14.07;100.00
21574;BME280;10948;48.706;9.258;2022-11-15T12:50:34;97119.19;;;13.95;100.00
21574;BME280;10948;48.706;9.258;2022-11-15T12:53:25;97105.38;;;13.83;100.00
21574;BME280;10948;48.706;9.258;2022-11-15T12:59:06;97102.75;;;14.04;100.00
21574;BME280;10948;48.706;9.258;2022-11-15T13:06:43;97097.03;;;13.69;100.00
21574;BME280;10948;48.706;9.258;2022-11-15T13:11:53;97084.72;;;13.80;100.00
21574;BME280;10948;48.706;9.258;2022-11-15T13:17:03;97082.78;;;13.82;100.00
21574;BME280;10948;48.706;9.258;2022-11-15T13:19:37;97084.72;;;13.80;100.00
21574;BME280;10948;48.706;9.258;2022-11-15T13:22:04;97068.06;;;13.81;100.00
21574;BME280;10948;48.706;9.258;2022-11-15T13:24:48;97060.72;;;13.75;100.00
21574;BME280;10948;48.706;9.258;2022-11-15T13:27:18;97069.78;;;13.71;100.00
21574;BME280;10948;48.706;9.258;2022-11-15T13:29:44;97069.06;;;13.90;100.00
21574;BME280;10948;48.706;9.258;2022-11-15T13:32:13;97062.19;;;13.68;100.00
21574;BME280;10948;48.706;9.258;2022-11-15T13:34:38;97061.81;;;13.73;100.00
21574;BME280;10948;48.706;9.258;2022-11-15T13:37:13;97059.13;;;13.84;100.00
21574;BME280;10948;48.706;9.258;2022-11-15T13:39:52;97060.41;;;13.69;100.00
21574;BME280;10948;48.706;9.258;2022-11-15T13:42:18;97053.50;;;13.68;100.00
21574;BME280;10948;48.706;9.258;2022-11-15T13:44:54;97042.97;;;13.58;100.00
21574;BME280;10948;48.706;9.258;2022-11-15T13:47:20;97042.09;;;13.48;100.00
21574;BME280;10948;48.706;9.258;2022-11-15T13:49:45;97039.09;;;13.53;100.00
21574;BME280;10948;48.706;9.258;2022-11-15T13:52:11;97037.19;;;13.55;100.00
21574;BME280;10948;48.706;9.258;2022-11-15T13:54:55;97026.47;;;13.37;100.00
21574;BME280;10948;48.706;9.258;2022-11-15T13:57:23;97024.63;;;13.28;100.00
21574;BME280;10948;48.706;9.258;2022-11-15T13:59:50;97022.63;;;13.21;100.00
21574;BME280;10948;48.706;9.258;2022-11-15T14:02:17;97020.53;;;13.15;100.00
21574;BME280;10948;48.706;9.258;2022-11-15T14:04:51;97015.53;;;13.23;100.00
21574;BME280;10948;48.706;9.258;2022-11-15T14:07:19;97010.66;;;13.18;100.00
21574;BME280;10948;48.706;9.258;2022-11-15T14:09:44;97016.03;;;13.17;100.00
21574;BME280;10948;48.706;9.258;2022-11-15T14:14:52;97010.81;;;13.17;100.00
21574;BME280;10948;48.706;9.258;2022-11-15T14:19:54;96990.13;;;13.14;100.00
21574;BME280;10948;48.706;9.258;2022-11-15T14:22:23;96986.25;;;13.08;100.00
21574;BME280;10948;48.706;9.258;2022-11-15T14:25:04;96974.66;;;13.01;100.00
21574;BME280;10948;48.706;9.258;2022-11-15T14:27:30;96979.50;;;13.06;100.00
21574;BME280;10948;48.706;9.258;2022-11-15T14:29:56;96980.69;;;13.02;100.00
21574;BME280;10948;48.706;9.258;2022-11-15T14:32:22;96974.53;;;13.03;100.00
21574;BME280;10948;48.706;9.258;2022-11-15T14:34:49;96967.22;;;12.97;100.00
21574;BME280;10948;48.706;9.258;2022-11-15T14:37:21;96976.69;;;12.87;100.00
21574;BME280;10948;48.706;9.258;2022-11-15T14:39:48;96966.13;;;12.99;100.00
21574;BME280;10948;48.706;9.258;2022-11-15T14:42:14;96959.50;;;12.95;100.00
21574;BME280;10948;48.706;9.258;2022-11-15T14:44:40;96959.88;;;12.80;100.00
21574;BME280;10948;48.706;9.258;2022-11-15T14:47:05;96955.31;;;12.72;100.00
21574;BME280;10948;48.706;9.258;2022-11-15T14:49:31;96957.06;;;12.72;100.00
21574;BME280;10948;48.706;9.258;2022-11-15T14:51:56;96956.31;;;12.81;100.00
21574;BME280;10948;48.706;9.258;2022-11-15T14:54:21;96955.22;;;12.83;100.00
21574;BME280;10948;48.706;9.258;2022-11-15T14:56:47;96956.13;;;12.73;100.00